sensor_id;sensor_type;location;lat;lon;timestamp;P1;durP1;ratioP1;P2;durP2;ratioP2
33644;SDS011;19986;48.190;16.366;2022-07-23T00:01:35;28.20;;;26.17;;
33644;SDS011;19986;48.190;16.366;2022-07-23T00:04:01;28.25;;;26.33;;
33644;SDS011;19986;48.190;16.366;2022-07-23T00:06:27;28.58;;;26.23;;
33644;SDS011;19986;48.190;16.366;2022-07-23T00:08:53;29.13;;;26.65;;
33644;SDS011;19986;48.190;16.366;2022-07-23T00:11:19;27.50;;;25.52;;
33644;SDS011;19986;48.190;16.366;2022-07-23T00:13:47;28.63;;;26.70;;
33644;SDS011;19986;48.190;16.366;2022-07-23T00:16:13;28.30;;;25.92;;
33644;SDS011;19986;48.190;16.366;2022-07-23T00:18:39;27.40;;;25.42;;
33644;SDS011;19986;48.190;16.366;2022-07-23T00:21:05;28.33;;;26.08;;
33644;SDS011;19986;48.190;16.366;2022-07-23T00:23:32;26.92;;;24.92;;
33644;SDS011;19986;48.190;16.366;2022-07-23T00:25:58;28.30;;;26.15;;
33644;SDS011;19986;48.190;16.366;2022-07-23T00:28:24;27.58;;;25.45;;
33644;SDS011;19986;48.190;16.366;2022-07-23T00:30:50;27.90;;;26.10;;
33644;SDS011;19986;48.190;16.366;2022-07-23T00:33:16;28.65;;;26.52;;
33644;SDS011;19986;48.190;16.366;2022-07-23T00:35:42;28.33;;;26.25;;
33644;SDS011;19986;48.190;16.366;2022-07-23T00:38:08;28.40;;;26.40;;
33644;SDS011;19986;48.190;16.366;2022-07-23T00:40:36;26.85;;;25.05;;
33644;SDS011;19986;48.190;16.366;2022-07-23T00:43:15;28.52;;;26.30;;
33644;SDS011;19986;48.190;16.366;2022-07-23T00:45:41;27.13;;;24.98;;
33644;SDS011;19986;48.190;16.366;2022-07-23T00:48:07;27.00;;;25.08;;
33644;SDS011;19986;48.190;16.366;2022-07-23T00:50:33;26.35;;;24.48;;
33644;SDS011;19986;48.190;16.366;2022-07-23T00:52:59;26.55;;;24.48;;
33644;SDS011;19986;48.190;16.366;2022-07-23T00:55:25;27.60;;;25.38;;
33644;SDS011;19986;48.190;16.366;2022-07-23T00:57:51;28.33;;;26.02;;
33644;SDS011;19986;48.190;16.366;2022-07-23T01:00:19;26.33;;;24.42;;
33644;SDS011;19986;48.190;16.366;2022-07-23T01:02:45;28.48;;;26.50;;
33644;SDS011;19986;48.190;16.366;2022-07-23T01:05:11;27.52;;;25.52;;
33644;SDS011;19986;48.190;16.366;2022-07-23T01:07:37;28.92;;;26.65;;
33644;SDS011;19986;48.190;16.366;2022-07-23T01:10:05;30.02;;;27.77;;
33644;SDS011;19986;48.190;16.366;2022-07-23T01:12:52;29.90;;;27.77;;
33644;SDS011;19986;48.190;16.366;2022-07-23T01:15:18;29.58;;;27.58;;
33644;SDS011;19986;48.190;16.366;2022-07-23T01:17:44;29.85;;;27.67;;
33644;SDS011;19986;48.190;16.366;2022-07-23T01:20:09;30.83;;;28.73;;
33644;SDS011;19986;48.190;16.366;2022-07-23T01:22:35;30.52;;;28.48;;
33644;SDS011;19986;48.190;16.366;2022-07-23T01:25:01;29.67;;;27.60;;
33644;SDS011;19986;48.190;16.366;2022-07-23T01:27:27;30.30;;;28.35;;
33644;SDS011;19986;48.190;16.366;2022-07-23T01:29:54;30.83;;;28.75;;
33644;SDS011;19986;48.190;16.366;2022-07-23T01:32:20;29.23;;;27.10;;
33644;SDS011;19986;48.190;16.366;2022-07-23T01:34:46;28.80;;;26.70;;
33644;SDS011;19986;48.190;16.366;2022-07-23T01:37:12;29.73;;;27.63;;
33644;SDS011;19986;48.190;16.366;2022-07-23T01:39:38;28.88;;;26.92;;
33644;SDS011;19986;48.190;16.366;2022-07-23T01:42:04;29.20;;;26.98;;
33644;SDS011;19986;48.190;16.366;2022-07-23T01:44:30;29.15;;;27.05;;
33644;SDS011;19986;48.190;16.366;2022-07-23T01:46:57;28.95;;;26.88;;
33644;SDS011;19986;48.190;16.366;2022-07-23T01:49:24;28.65;;;26.52;;
33644;SDS011;19986;48.190;16.366;2022-07-23T01:51:50;30.65;;;28.55;;
33644;SDS011;19986;48.190;16.366;2022-07-23T01:54:31;30.35;;;28.02;;
33644;SDS011;19986;48.190;16.366;2022-07-23T01:57:00;29.42;;;27.17;;
33644;SDS011;19986;48.190;16.366;2022-07-23T01:59:27;29.13;;;27.23;;
33644;SDS011;19986;48.190;16.366;2022-07-23T02:01:53;31.20;;;28.75;;
33644;SDS011;19986;48.190;16.366;2022-07-23T02:04:20;30.50;;;28.23;;
33644;SDS011;19986;48.190;16.366;2022-07-23T02:06:47;29.92;;;27.80;;
33644;SDS011;19986;48.190;16.366;2022-07-23T02:09:14;29.10;;;27.17;;
33644;SDS011;19986;48.190;16.366;2022-07-23T02:11:40;29.45;;;27.33;;
33644;SDS011;19986;48.190;16.366;2022-07-23T02:14:07;31.27;;;29.08;;
33644;SDS011;19986;48.190;16.366;2022-07-23T02:16:34;30.92;;;28.75;;
33644;SDS011;19986;48.190;16.366;2022-07-23T02:19:00;30.58;;;28.40;;
33644;SDS011;19986;48.190;16.366;2022-07-23T02:21:26;30.33;;;28.30;;
33644;SDS011;19986;48.190;16.366;2022-07-23T02:23:52;30.52;;;28.60;;
33644;SDS011;19986;48.190;16.366;2022-07-23T02:26:19;30.70;;;28.65;;
33644;SDS011;19986;48.190;16.366;2022-07-23T02:28:46;30.50;;;28.33;;
33644;SDS011;19986;48.190;16.366;2022-07-23T02:31:13;31.17;;;29.08;;
33644;SDS011;19986;48.190;16.366;2022-07-23T02:33:38;31.33;;;29.13;;
33644;SDS011;19986;48.190;16.366;2022-07-23T02:36:04;29.25;;;27.00;;
33644;SDS011;19986;48.190;16.366;2022-07-23T02:38:31;29.98;;;27.77;;
33644;SDS011;19986;48.190;16.366;2022-07-23T02:40:58;30.25;;;28.10;;
33644;SDS011;19986;48.190;16.366;2022-07-23T02:43:24;30.80;;;28.55;;
33644;SDS011;19986;48.190;16.366;2022-07-23T02:45:50;30.25;;;27.98;;
33644;SDS011;19986;48.190;16.366;2022-07-23T02:48:15;28.98;;;26.92;;
33644;SDS011;19986;48.190;16.366;2022-07-23T02:50:42;30.83;;;28.63;;
33644;SDS011;19986;48.190;16.366;2022-07-23T02:53:08;31.98;;;29.88;;
33644;SDS011;19986;48.190;16.366;2022-07-23T02:55:34;30.83;;;28.67;;
33644;SDS011;19986;48.190;16.366;2022-07-23T02:58:00;31.15;;;28.92;;
33644;SDS011;19986;48.190;16.366;2022-07-23T03:00:26;29.60;;;27.52;;
33644;SDS011;19986;48.190;16.366;2022-07-23T03:02:52;30.80;;;28.63;;
33644;SDS011;19986;48.190;16.366;2022-07-23T03:05:18;31.25;;;29.33;;
33644;SDS011;19986;48.190;16.366;2022-07-23T03:07:45;29.50;;;27.30;;
33644;SDS011;19986;48.190;16.366;2022-07-23T03:10:11;29.77;;;27.83;;
33644;SDS011;19986;48.190;16.366;2022-07-23T03:12:37;31.85;;;29.58;;
33644;SDS011;19986;48.190;16.366;2022-07-23T03:15:04;30.27;;;28.10;;
33644;SDS011;19986;48.190;16.366;2022-07-23T03:17:31;30.13;;;28.05;;
33644;SDS011;19986;48.190;16.366;2022-07-23T03:19:57;30.60;;;28.20;;
33644;SDS011;19986;48.190;16.366;2022-07-23T03:22:25;30.55;;;28.67;;
33644;SDS011;19986;48.190;16.366;2022-07-23T03:24:51;30.48;;;28.58;;
33644;SDS011;19986;48.190;16.366;2022-07-23T03:27:21;30.75;;;28.65;;
33644;SDS011;19986;48.190;16.366;2022-07-23T03:29:52;28.80;;;26.80;;
33644;SDS011;19986;48.190;16.366;2022-07-23T03:32:34;31.67;;;29.35;;
33644;SDS011;19986;48.190;16.366;2022-07-23T03:35:00;29.70;;;27.80;;
33644;SDS011;19986;48.190;16.366;2022-07-23T03:37:27;30.98;;;28.80;;
33644;SDS011;19986;48.190;16.366;2022-07-23T03:39:53;29.40;;;27.58;;
33644;SDS011;19986;48.190;16.366;2022-07-23T03:42:19;31.15;;;28.90;;
33644;SDS011;19986;48.190;16.366;2022-07-23T03:44:45;29.75;;;27.70;;
33644;SDS011;19986;48.190;16.366;2022-07-23T03:47:12;29.95;;;27.98;;
33644;SDS011;19986;48.190;16.366;2022-07-23T03:49:38;30.70;;;28.40;;
33644;SDS011;19986;48.190;16.366;2022-07-23T03:52:05;31.52;;;29.35;;
33644;SDS011;19986;48.190;16.366;2022-07-23T03:54:30;31.52;;;29.23;;
33644;SDS011;19986;48.190;16.366;2022-07-23T03:56:56;29.48;;;27.40;;
33644;SDS011;19986;48.190;16.366;2022-07-23T03:59:22;31.48;;;29.05;;
33644;SDS011;19986;48.190;16.366;2022-07-23T04:01:49;30.05;;;27.98;;
33644;SDS011;19986;48.190;16.366;2022-07-23T04:04:15;29.42;;;27.23;;
33644;SDS011;19986;48.190;16.366;2022-07-23T04:06:41;31.10;;;28.80;;
33644;SDS011;19986;48.190;16.366;2022-07-23T04:09:07;30.73;;;28.48;;
33644;SDS011;19986;48.190;16.366;2022-07-23T04:11:33;30.40;;;28.35;;
33644;SDS011;19986;48.190;16.366;2022-07-23T04:13:59;30.30;;;28.27;;
33644;SDS011;19986;48.190;16.366;2022-07-23T04:16:25;30.02;;;28.00;;
33644;SDS011;19986;48.190;16.366;2022-07-23T04:18:51;30.42;;;27.83;;
33644;SDS011;19986;48.190;16.366;2022-07-23T04:21:16;29.45;;;27.55;;
33644;SDS011;19986;48.190;16.366;2022-07-23T04:23:42;29.67;;;27.67;;
33644;SDS011;19986;48.190;16.366;2022-07-23T04:26:08;30.45;;;28.50;;
33644;SDS011;19986;48.190;16.366;2022-07-23T04:28:34;30.42;;;28.13;;
33644;SDS011;19986;48.190;16.366;2022-07-23T04:31:00;30.65;;;28.67;;
33644;SDS011;19986;48.190;16.366;2022-07-23T04:33:26;30.80;;;28.67;;
33644;SDS011;19986;48.190;16.366;2022-07-23T04:35:52;30.27;;;27.55;;
33644;SDS011;19986;48.190;16.366;2022-07-23T04:38:18;29.63;;;27.83;;
33644;SDS011;19986;48.190;16.366;2022-07-23T04:40:44;30.02;;;28.23;;
33644;SDS011;19986;48.190;16.366;2022-07-23T04:43:09;30.02;;;28.05;;
33644;SDS011;19986;48.190;16.366;2022-07-23T04:45:35;28.92;;;26.73;;
33644;SDS011;19986;48.190;16.366;2022-07-23T04:48:01;30.90;;;28.70;;
33644;SDS011;19986;48.190;16.366;2022-07-23T04:50:27;29.63;;;27.73;;
33644;SDS011;19986;48.190;16.366;2022-07-23T04:52:53;29.27;;;26.95;;
33644;SDS011;19986;48.190;16.366;2022-07-23T04:55:19;29.38;;;27.50;;
33644;SDS011;19986;48.190;16.366;2022-07-23T04:57:45;29.17;;;27.15;;
33644;SDS011;19986;48.190;16.366;2022-07-23T05:00:10;29.80;;;27.50;;
33644;SDS011;19986;48.190;16.366;2022-07-23T05:02:37;29.83;;;27.52;;
33644;SDS011;19986;48.190;16.366;2022-07-23T05:05:06;29.15;;;27.23;;
33644;SDS011;19986;48.190;16.366;2022-07-23T05:07:32;30.15;;;27.88;;
33644;SDS011;19986;48.190;16.366;2022-07-23T05:09:58;28.50;;;26.73;;
33644;SDS011;19986;48.190;16.366;2022-07-23T05:12:24;30.25;;;27.80;;
33644;SDS011;19986;48.190;16.366;2022-07-23T05:14:50;30.42;;;28.52;;
33644;SDS011;19986;48.190;16.366;2022-07-23T05:17:18;31.08;;;28.83;;
33644;SDS011;19986;48.190;16.366;2022-07-23T05:19:43;27.92;;;26.13;;
33644;SDS011;19986;48.190;16.366;2022-07-23T05:22:09;29.90;;;28.00;;
33644;SDS011;19986;48.190;16.366;2022-07-23T05:24:37;30.60;;;28.58;;
33644;SDS011;19986;48.190;16.366;2022-07-23T05:27:02;30.42;;;28.30;;
33644;SDS011;19986;48.190;16.366;2022-07-23T05:29:28;30.48;;;28.27;;
33644;SDS011;19986;48.190;16.366;2022-07-23T05:31:54;28.80;;;26.92;;
33644;SDS011;19986;48.190;16.366;2022-07-23T05:34:20;28.15;;;26.40;;
33644;SDS011;19986;48.190;16.366;2022-07-23T05:36:46;29.15;;;27.00;;
33644;SDS011;19986;48.190;16.366;2022-07-23T05:39:13;29.27;;;27.38;;
33644;SDS011;19986;48.190;16.366;2022-07-23T05:41:39;28.77;;;26.52;;
33644;SDS011;19986;48.190;16.366;2022-07-23T05:44:05;27.83;;;26.13;;
33644;SDS011;19986;48.190;16.366;2022-07-23T05:46:34;29.65;;;27.58;;
33644;SDS011;19986;48.190;16.366;2022-07-23T05:49:00;32.13;;;29.13;;
33644;SDS011;19986;48.190;16.366;2022-07-23T05:51:26;28.67;;;26.70;;
33644;SDS011;19986;48.190;16.366;2022-07-23T05:53:52;30.70;;;28.50;;
33644;SDS011;19986;48.190;16.366;2022-07-23T05:56:18;30.77;;;28.67;;
33644;SDS011;19986;48.190;16.366;2022-07-23T05:58:44;30.00;;;28.10;;
33644;SDS011;19986;48.190;16.366;2022-07-23T06:01:10;29.10;;;27.27;;
33644;SDS011;19986;48.190;16.366;2022-07-23T06:03:40;30.60;;;28.70;;
33644;SDS011;19986;48.190;16.366;2022-07-23T06:06:06;28.83;;;26.92;;
33644;SDS011;19986;48.190;16.366;2022-07-23T06:08:32;30.10;;;28.08;;
33644;SDS011;19986;48.190;16.366;2022-07-23T06:10:58;30.58;;;28.45;;
33644;SDS011;19986;48.190;16.366;2022-07-23T06:13:24;29.73;;;27.55;;
33644;SDS011;19986;48.190;16.366;2022-07-23T06:15:50;29.20;;;27.23;;
33644;SDS011;19986;48.190;16.366;2022-07-23T06:18:16;28.13;;;26.33;;
33644;SDS011;19986;48.190;16.366;2022-07-23T06:20:42;29.63;;;27.75;;
33644;SDS011;19986;48.190;16.366;2022-07-23T06:23:08;29.75;;;27.65;;
33644;SDS011;19986;48.190;16.366;2022-07-23T06:25:34;27.45;;;25.75;;
33644;SDS011;19986;48.190;16.366;2022-07-23T06:28:00;29.02;;;27.05;;
33644;SDS011;19986;48.190;16.366;2022-07-23T06:30:25;29.27;;;27.48;;
33644;SDS011;19986;48.190;16.366;2022-07-23T06:32:51;28.02;;;26.05;;
33644;SDS011;19986;48.190;16.366;2022-07-23T06:35:17;28.92;;;26.92;;
33644;SDS011;19986;48.190;16.366;2022-07-23T06:37:43;28.52;;;26.67;;
33644;SDS011;19986;48.190;16.366;2022-07-23T06:40:09;27.60;;;25.77;;
33644;SDS011;19986;48.190;16.366;2022-07-23T06:42:35;27.48;;;25.73;;
33644;SDS011;19986;48.190;16.366;2022-07-23T06:45:13;25.63;;;23.50;;
33644;SDS011;19986;48.190;16.366;2022-07-23T06:47:39;26.90;;;25.08;;
33644;SDS011;19986;48.190;16.366;2022-07-23T06:50:06;26.63;;;25.13;;
33644;SDS011;19986;48.190;16.366;2022-07-23T06:52:32;26.73;;;24.83;;
33644;SDS011;19986;48.190;16.366;2022-07-23T06:54:58;27.98;;;26.27;;
33644;SDS011;19986;48.190;16.366;2022-07-23T06:57:23;26.63;;;24.92;;
33644;SDS011;19986;48.190;16.366;2022-07-23T06:59:51;28.10;;;26.30;;
33644;SDS011;19986;48.190;16.366;2022-07-23T07:02:17;26.40;;;24.52;;
33644;SDS011;19986;48.190;16.366;2022-07-23T07:04:43;26.48;;;24.67;;
33644;SDS011;19986;48.190;16.366;2022-07-23T07:07:08;27.25;;;25.35;;
33644;SDS011;19986;48.190;16.366;2022-07-23T07:09:34;25.25;;;23.85;;
33644;SDS011;19986;48.190;16.366;2022-07-23T07:12:00;24.45;;;22.85;;
33644;SDS011;19986;48.190;16.366;2022-07-23T07:14:26;23.48;;;21.88;;
33644;SDS011;19986;48.190;16.366;2022-07-23T07:16:52;24.17;;;22.83;;
33644;SDS011;19986;48.190;16.366;2022-07-23T07:19:18;23.73;;;22.23;;
33644;SDS011;19986;48.190;16.366;2022-07-23T07:21:44;23.90;;;22.60;;
33644;SDS011;19986;48.190;16.366;2022-07-23T07:24:10;23.92;;;22.45;;
33644;SDS011;19986;48.190;16.366;2022-07-23T07:26:36;25.50;;;24.10;;
33644;SDS011;19986;48.190;16.366;2022-07-23T07:29:03;23.50;;;22.00;;
33644;SDS011;19986;48.190;16.366;2022-07-23T07:31:30;23.90;;;22.50;;
33644;SDS011;19986;48.190;16.366;2022-07-23T07:33:56;24.30;;;23.00;;
33644;SDS011;19986;48.190;16.366;2022-07-23T07:36:22;24.65;;;23.13;;
33644;SDS011;19986;48.190;16.366;2022-07-23T07:38:48;23.17;;;21.77;;
33644;SDS011;19986;48.190;16.366;2022-07-23T07:41:14;22.33;;;21.02;;
33644;SDS011;19986;48.190;16.366;2022-07-23T07:43:41;23.75;;;22.30;;
33644;SDS011;19986;48.190;16.366;2022-07-23T07:46:07;24.67;;;23.00;;
33644;SDS011;19986;48.190;16.366;2022-07-23T07:48:36;22.90;;;21.50;;
33644;SDS011;19986;48.190;16.366;2022-07-23T07:51:05;23.92;;;22.27;;
33644;SDS011;19986;48.190;16.366;2022-07-23T07:53:32;23.50;;;22.05;;
33644;SDS011;19986;48.190;16.366;2022-07-23T07:55:57;23.27;;;22.08;;
33644;SDS011;19986;48.190;16.366;2022-07-23T07:58:24;23.40;;;22.13;;
33644;SDS011;19986;48.190;16.366;2022-07-23T08:00:49;23.15;;;21.63;;
33644;SDS011;19986;48.190;16.366;2022-07-23T08:03:16;24.35;;;22.95;;
33644;SDS011;19986;48.190;16.366;2022-07-23T08:05:42;23.65;;;22.35;;
33644;SDS011;19986;48.190;16.366;2022-07-23T08:08:10;23.95;;;22.42;;
33644;SDS011;19986;48.190;16.366;2022-07-23T08:10:40;25.20;;;23.80;;
33644;SDS011;19986;48.190;16.366;2022-07-23T08:13:06;22.88;;;21.50;;
33644;SDS011;19986;48.190;16.366;2022-07-23T08:15:32;24.25;;;22.85;;
33644;SDS011;19986;48.190;16.366;2022-07-23T08:17:58;24.52;;;22.95;;
33644;SDS011;19986;48.190;16.366;2022-07-23T08:20:25;24.98;;;23.45;;
33644;SDS011;19986;48.190;16.366;2022-07-23T08:22:56;24.23;;;22.80;;
33644;SDS011;19986;48.190;16.366;2022-07-23T08:25:24;23.38;;;22.02;;
33644;SDS011;19986;48.190;16.366;2022-07-23T08:27:55;24.60;;;23.17;;
33644;SDS011;19986;48.190;16.366;2022-07-23T08:30:22;23.20;;;21.88;;
33644;SDS011;19986;48.190;16.366;2022-07-23T08:38:04;24.08;;;22.70;;
33644;SDS011;19986;48.190;16.366;2022-07-23T08:40:33;23.88;;;22.48;;
33644;SDS011;19986;48.190;16.366;2022-07-23T08:43:00;24.42;;;22.85;;
33644;SDS011;19986;48.190;16.366;2022-07-23T08:45:37;23.80;;;22.33;;
33644;SDS011;19986;48.190;16.366;2022-07-23T08:48:05;25.13;;;23.73;;
33644;SDS011;19986;48.190;16.366;2022-07-23T08:50:34;24.48;;;22.88;;
33644;SDS011;19986;48.190;16.366;2022-07-23T08:53:06;25.05;;;23.55;;
33644;SDS011;19986;48.190;16.366;2022-07-23T08:55:32;22.90;;;21.58;;
33644;SDS011;19986;48.190;16.366;2022-07-23T08:57:59;24.25;;;22.90;;
33644;SDS011;19986;48.190;16.366;2022-07-23T09:00:26;22.98;;;21.58;;
33644;SDS011;19986;48.190;16.366;2022-07-23T09:02:52;23.90;;;22.42;;
33644;SDS011;19986;48.190;16.366;2022-07-23T09:05:19;24.77;;;23.40;;
33644;SDS011;19986;48.190;16.366;2022-07-23T09:10:42;23.42;;;22.13;;
33644;SDS011;19986;48.190;16.366;2022-07-23T09:15:54;23.90;;;22.55;;
33644;SDS011;19986;48.190;16.366;2022-07-23T09:18:35;24.02;;;22.15;;
33644;SDS011;19986;48.190;16.366;2022-07-23T09:21:25;23.65;;;22.25;;
33644;SDS011;19986;48.190;16.366;2022-07-23T09:26:25;25.08;;;23.38;;
33644;SDS011;19986;48.190;16.366;2022-07-23T09:29:03;22.90;;;21.60;;
33644;SDS011;19986;48.190;16.366;2022-07-23T09:34:19;23.90;;;22.50;;
33644;SDS011;19986;48.190;16.366;2022-07-23T09:36:46;23.73;;;22.35;;
33644;SDS011;19986;48.190;16.366;2022-07-23T09:39:13;24.27;;;22.77;;
33644;SDS011;19986;48.190;16.366;2022-07-23T09:41:42;24.02;;;22.73;;
33644;SDS011;19986;48.190;16.366;2022-07-23T09:44:21;24.00;;;22.35;;
33644;SDS011;19986;48.190;16.366;2022-07-23T09:46:48;23.25;;;21.80;;
33644;SDS011;19986;48.190;16.366;2022-07-23T09:49:16;25.20;;;23.60;;
33644;SDS011;19986;48.190;16.366;2022-07-23T09:51:45;23.95;;;22.55;;
33644;SDS011;19986;48.190;16.366;2022-07-23T09:54:20;23.38;;;22.02;;
33644;SDS011;19986;48.190;16.366;2022-07-23T09:56:52;25.17;;;23.52;;
33644;SDS011;19986;48.190;16.366;2022-07-23T09:59:22;25.48;;;24.08;;
33644;SDS011;19986;48.190;16.366;2022-07-23T10:01:50;24.15;;;22.63;;
33644;SDS011;19986;48.190;16.366;2022-07-23T10:04:19;24.70;;;23.27;;
33644;SDS011;19986;48.190;16.366;2022-07-23T10:06:48;24.45;;;22.83;;
33644;SDS011;19986;48.190;16.366;2022-07-23T10:09:20;24.08;;;22.63;;
33644;SDS011;19986;48.190;16.366;2022-07-23T10:11:56;25.70;;;24.20;;
33644;SDS011;19986;48.190;16.366;2022-07-23T10:14:47;25.35;;;23.77;;
33644;SDS011;19986;48.190;16.366;2022-07-23T10:17:14;24.38;;;22.67;;
33644;SDS011;19986;48.190;16.366;2022-07-23T10:19:40;25.48;;;23.77;;
33644;SDS011;19986;48.190;16.366;2022-07-23T10:22:08;25.45;;;23.90;;
33644;SDS011;19986;48.190;16.366;2022-07-23T10:27:32;24.88;;;23.27;;
33644;SDS011;19986;48.190;16.366;2022-07-23T10:33:09;24.90;;;23.42;;
33644;SDS011;19986;48.190;16.366;2022-07-23T10:41:31;26.17;;;24.48;;
33644;SDS011;19986;48.190;16.366;2022-07-23T10:44:05;23.90;;;22.58;;
33644;SDS011;19986;48.190;16.366;2022-07-23T10:46:32;26.50;;;24.95;;
33644;SDS011;19986;48.190;16.366;2022-07-23T10:49:52;25.95;;;24.27;;
33644;SDS011;19986;48.190;16.366;2022-07-23T10:54:44;25.35;;;23.85;;
33644;SDS011;19986;48.190;16.366;2022-07-23T10:57:16;25.10;;;23.52;;
33644;SDS011;19986;48.190;16.366;2022-07-23T11:02:35;26.40;;;24.70;;
33644;SDS011;19986;48.190;16.366;2022-07-23T11:24:08;26.23;;;24.48;;
33644;SDS011;19986;48.190;16.366;2022-07-23T11:32:14;25.58;;;23.98;;
33644;SDS011;19986;48.190;16.366;2022-07-23T11:34:45;27.08;;;25.38;;
33644;SDS011;19986;48.190;16.366;2022-07-23T11:37:33;26.02;;;24.02;;
33644;SDS011;19986;48.190;16.366;2022-07-23T11:40:10;25.85;;;24.35;;
33644;SDS011;19986;48.190;16.366;2022-07-23T11:42:38;25.65;;;24.05;;
33644;SDS011;19986;48.190;16.366;2022-07-23T11:45:06;25.77;;;24.15;;
33644;SDS011;19986;48.190;16.366;2022-07-23T11:47:33;26.02;;;24.50;;
33644;SDS011;19986;48.190;16.366;2022-07-23T11:50:00;25.80;;;24.20;;
33644;SDS011;19986;48.190;16.366;2022-07-23T11:52:28;26.40;;;24.60;;
33644;SDS011;19986;48.190;16.366;2022-07-23T11:57:26;26.50;;;25.00;;
33644;SDS011;19986;48.190;16.366;2022-07-23T11:59:58;27.42;;;25.83;;
33644;SDS011;19986;48.190;16.366;2022-07-23T12:02:30;26.92;;;25.33;;
33644;SDS011;19986;48.190;16.366;2022-07-23T12:04:56;27.15;;;25.55;;
33644;SDS011;19986;48.190;16.366;2022-07-23T12:10:03;27.25;;;25.60;;
33644;SDS011;19986;48.190;16.366;2022-07-23T12:12:45;27.33;;;25.65;;
33644;SDS011;19986;48.190;16.366;2022-07-23T12:15:17;26.80;;;25.10;;
33644;SDS011;19986;48.190;16.366;2022-07-23T12:17:45;27.48;;;25.67;;
33644;SDS011;19986;48.190;16.366;2022-07-23T12:20:14;26.20;;;24.63;;
33644;SDS011;19986;48.190;16.366;2022-07-23T12:22:49;25.38;;;23.98;;
33644;SDS011;19986;48.190;16.366;2022-07-23T12:25:19;25.50;;;23.98;;
33644;SDS011;19986;48.190;16.366;2022-07-23T12:27:57;25.02;;;23.42;;
33644;SDS011;19986;48.190;16.366;2022-07-23T12:30:27;26.15;;;24.45;;
33644;SDS011;19986;48.190;16.366;2022-07-23T12:32:56;25.65;;;24.02;;
33644;SDS011;19986;48.190;16.366;2022-07-23T12:35:23;26.98;;;24.27;;
33644;SDS011;19986;48.190;16.366;2022-07-23T12:37:59;24.35;;;22.75;;
33644;SDS011;19986;48.190;16.366;2022-07-23T12:45:40;27.30;;;25.02;;
33644;SDS011;19986;48.190;16.366;2022-07-23T12:50:59;27.30;;;25.02;;
33644;SDS011;19986;48.190;16.366;2022-07-23T12:53:27;34.03;;;28.50;;
33644;SDS011;19986;48.190;16.366;2022-07-23T12:56:07;25.80;;;23.85;;
33644;SDS011;19986;48.190;16.366;2022-07-23T13:06:44;24.83;;;22.95;;
33644;SDS011;19986;48.190;16.366;2022-07-23T13:09:15;27.25;;;24.95;;
33644;SDS011;19986;48.190;16.366;2022-07-23T13:11:44;28.45;;;25.42;;
33644;SDS011;19986;48.190;16.366;2022-07-23T13:14:11;24.73;;;23.00;;
33644;SDS011;19986;48.190;16.366;2022-07-23T13:16:38;25.17;;;22.90;;
33644;SDS011;19986;48.190;16.366;2022-07-23T13:19:04;24.98;;;22.83;;
33644;SDS011;19986;48.190;16.366;2022-07-23T13:21:32;27.92;;;25.42;;
33644;SDS011;19986;48.190;16.366;2022-07-23T13:23:58;23.38;;;21.80;;
33644;SDS011;19986;48.190;16.366;2022-07-23T13:26:25;23.08;;;21.60;;
33644;SDS011;19986;48.190;16.366;2022-07-23T13:28:52;24.65;;;22.73;;
33644;SDS011;19986;48.190;16.366;2022-07-23T13:31:18;22.77;;;21.27;;
33644;SDS011;19986;48.190;16.366;2022-07-23T13:33:44;21.25;;;20.02;;
33644;SDS011;19986;48.190;16.366;2022-07-23T13:36:10;23.30;;;21.80;;
33644;SDS011;19986;48.190;16.366;2022-07-23T13:38:36;24.42;;;22.42;;
33644;SDS011;19986;48.190;16.366;2022-07-23T13:41:04;24.63;;;22.67;;
33644;SDS011;19986;48.190;16.366;2022-07-23T13:43:30;23.15;;;21.58;;
33644;SDS011;19986;48.190;16.366;2022-07-23T13:45:57;24.20;;;22.35;;
33644;SDS011;19986;48.190;16.366;2022-07-23T13:48:23;21.95;;;20.63;;
33644;SDS011;19986;48.190;16.366;2022-07-23T13:50:49;24.80;;;22.85;;
33644;SDS011;19986;48.190;16.366;2022-07-23T13:53:18;21.98;;;20.45;;
33644;SDS011;19986;48.190;16.366;2022-07-23T13:55:45;22.92;;;21.30;;
33644;SDS011;19986;48.190;16.366;2022-07-23T13:58:12;23.88;;;22.25;;
33644;SDS011;19986;48.190;16.366;2022-07-23T14:00:39;23.50;;;21.60;;
33644;SDS011;19986;48.190;16.366;2022-07-23T14:03:07;22.40;;;20.85;;
33644;SDS011;19986;48.190;16.366;2022-07-23T14:05:33;22.75;;;21.15;;
33644;SDS011;19986;48.190;16.366;2022-07-23T14:08:00;23.73;;;21.92;;
33644;SDS011;19986;48.190;16.366;2022-07-23T14:10:26;22.23;;;21.02;;
33644;SDS011;19986;48.190;16.366;2022-07-23T14:12:53;22.77;;;21.30;;
33644;SDS011;19986;48.190;16.366;2022-07-23T14:15:21;24.42;;;22.70;;
33644;SDS011;19986;48.190;16.366;2022-07-23T14:17:48;22.13;;;20.92;;
33644;SDS011;19986;48.190;16.366;2022-07-23T14:20:14;22.52;;;21.13;;
33644;SDS011;19986;48.190;16.366;2022-07-23T14:22:40;27.02;;;24.52;;
33644;SDS011;19986;48.190;16.366;2022-07-23T14:25:07;21.17;;;20.08;;
33644;SDS011;19986;48.190;16.366;2022-07-23T14:27:35;21.60;;;20.40;;
33644;SDS011;19986;48.190;16.366;2022-07-23T14:30:03;24.27;;;22.77;;
33644;SDS011;19986;48.190;16.366;2022-07-23T14:32:30;23.73;;;22.15;;
33644;SDS011;19986;48.190;16.366;2022-07-23T14:34:56;22.42;;;21.02;;
33644;SDS011;19986;48.190;16.366;2022-07-23T14:37:23;20.52;;;19.42;;
33644;SDS011;19986;48.190;16.366;2022-07-23T14:39:50;23.13;;;21.63;;
33644;SDS011;19986;48.190;16.366;2022-07-23T14:42:16;20.70;;;19.60;;
33644;SDS011;19986;48.190;16.366;2022-07-23T14:44:43;22.92;;;21.33;;
33644;SDS011;19986;48.190;16.366;2022-07-23T14:47:09;21.08;;;19.67;;
33644;SDS011;19986;48.190;16.366;2022-07-23T14:49:35;23.50;;;22.02;;
33644;SDS011;19986;48.190;16.366;2022-07-23T14:52:02;24.67;;;22.67;;
33644;SDS011;19986;48.190;16.366;2022-07-23T14:54:29;22.75;;;21.27;;
33644;SDS011;19986;48.190;16.366;2022-07-23T14:56:56;21.83;;;20.58;;
33644;SDS011;19986;48.190;16.366;2022-07-23T14:59:23;24.58;;;23.05;;
33644;SDS011;19986;48.190;16.366;2022-07-23T15:01:50;25.48;;;23.55;;
33644;SDS011;19986;48.190;16.366;2022-07-23T15:04:16;23.90;;;22.45;;
33644;SDS011;19986;48.190;16.366;2022-07-23T15:06:42;23.48;;;21.55;;
33644;SDS011;19986;48.190;16.366;2022-07-23T15:09:08;22.65;;;21.13;;
33644;SDS011;19986;48.190;16.366;2022-07-23T15:11:34;22.25;;;20.95;;
33644;SDS011;19986;48.190;16.366;2022-07-23T15:14:02;23.58;;;22.17;;
33644;SDS011;19986;48.190;16.366;2022-07-23T15:16:31;26.15;;;24.08;;
33644;SDS011;19986;48.190;16.366;2022-07-23T15:18:58;24.17;;;22.67;;
33644;SDS011;19986;48.190;16.366;2022-07-23T15:21:24;27.52;;;25.33;;
33644;SDS011;19986;48.190;16.366;2022-07-23T15:23:50;24.23;;;22.73;;
33644;SDS011;19986;48.190;16.366;2022-07-23T15:26:16;23.85;;;22.38;;
33644;SDS011;19986;48.190;16.366;2022-07-23T15:28:43;24.27;;;22.65;;
33644;SDS011;19986;48.190;16.366;2022-07-23T15:31:09;22.98;;;21.58;;